sensor_id;sensor_type;location;lat;lon;timestamp;pressure;altitude;pressure_sealevel;temperature;humidity
69245;BME280;56357;52.304;4.870;2023-05-03T00:00:27;103220.00;;;17.77;44.71
69245;BME280;56357;52.304;4.870;2023-05-03T00:02:53;103223.91;;;17.69;44.67
69245;BME280;56357;52.304;4.870;2023-05-03T00:05:21;103223.06;;;17.69;45.22
69245;BME280;56357;52.304;4.870;2023-05-03T00:07:48;103233.41;;;17.68;45.25
69245;BME280;56357;52.304;4.870;2023-05-03T00:10:14;103231.03;;;17.65;45.09
69245;BME280;56357;52.304;4.870;2023-05-03T00:12:41;103232.75;;;17.60;45.25
69245;BME280;56357;52.304;4.870;2023-05-03T00:15:09;103239.00;;;17.62;45.07
69245;BME280;56357;52.304;4.870;2023-05-03T00:17:36;103231.06;;;17.59;45.30
69245;BME280;56357;52.304;4.870;2023-05-03T00:20:03;103216.59;;;17.62;45.44
69245;BME280;56357;52.304;4.870;2023-05-03T00:22:32;103220.47;;;17.61;45.20
69245;BME280;56357;52.304;4.870;2023-05-03T00:24:59;103222.88;;;17.57;45.37
69245;BME280;56357;52.304;4.870;2023-05-03T00:27:26;103218.59;;;17.48;45.43
69245;BME280;56357;52.304;4.870;2023-05-03T00:29:52;103219.84;;;17.52;45.46
69245;BME280;56357;52.304;4.870;2023-05-03T00:32:19;103224.16;;;17.55;45.39
69245;BME280;56357;52.304;4.870;2023-05-03T00:34:53;103215.13;;;17.53;45.40
69245;BME280;56357;52.304;4.870;2023-05-03T00:37:20;103220.06;;;17.51;45.72
69245;BME280;56357;52.304;4.870;2023-05-03T00:39:46;103223.53;;;17.46;45.40
69245;BME280;56357;52.304;4.870;2023-05-03T00:42:13;103225.03;;;17.49;45.50
69245;BME280;56357;52.304;4.870;2023-05-03T00:44:40;103226.09;;;17.48;45.64
69245;BME280;56357;52.304;4.870;2023-05-03T00:47:07;103223.94;;;17.43;45.30
69245;BME280;56357;52.304;4.870;2023-05-03T00:49:34;103231.69;;;17.41;45.19
69245;BME280;56357;52.304;4.870;2023-05-03T00:52:01;103231.69;;;17.41;45.58
69245;BME280;56357;52.304;4.870;2023-05-03T00:54:28;103226.97;;;17.35;45.61
69245;BME280;56357;52.304;4.870;2023-05-03T00:56:57;103223.34;;;17.34;45.77
69245;BME280;56357;52.304;4.870;2023-05-03T00:59:23;103225.91;;;17.36;45.37
69245;BME280;56357;52.304;4.870;2023-05-03T01:01:51;103235.59;;;17.33;45.64
69245;BME280;56357;52.304;4.870;2023-05-03T01:04:19;103232.81;;;17.33;45.65
69245;BME280;56357;52.304;4.870;2023-05-03T01:07:12;103229.78;;;17.35;45.41
69245;BME280;56357;52.304;4.870;2023-05-03T01:12:43;103224.63;;;17.32;45.75
69245;BME280;56357;52.304;4.870;2023-05-03T01:17:57;103220.31;;;17.29;45.72
69245;BME280;56357;52.304;4.870;2023-05-03T01:20:27;103230.00;;;17.27;45.67
69245;BME280;56357;52.304;4.870;2023-05-03T01:25:24;103227.00;;;17.22;45.56
69245;BME280;56357;52.304;4.870;2023-05-03T01:27:51;103227.66;;;17.24;45.53
69245;BME280;56357;52.304;4.870;2023-05-03T01:30:20;103224.63;;;17.25;45.40
69245;BME280;56357;52.304;4.870;2023-05-03T01:33:02;103220.75;;;17.26;45.33
69245;BME280;56357;52.304;4.870;2023-05-03T01:38:07;103213.44;;;17.19;45.14
69245;BME280;56357;52.304;4.870;2023-05-03T01:40:39;103214.09;;;17.21;45.21
69245;BME280;56357;52.304;4.870;2023-05-03T01:43:10;103211.28;;;17.21;45.45
69245;BME280;56357;52.304;4.870;2023-05-03T01:45:37;103212.81;;;17.17;45.28
69245;BME280;56357;52.304;4.870;2023-05-03T01:48:09;103213.22;;;17.14;45.35
69245;BME280;56357;52.304;4.870;2023-05-03T01:50:36;103211.72;;;17.18;45.50
69245;BME280;56357;52.304;4.870;2023-05-03T01:53:02;103213.00;;;17.22;45.56
69245;BME280;56357;52.304;4.870;2023-05-03T01:55:28;103197.47;;;17.26;45.12
69245;BME280;56357;52.304;4.870;2023-05-03T01:57:55;103200.50;;;17.18;45.33
69245;BME280;56357;52.304;4.870;2023-05-03T02:00:21;103184.16;;;17.15;45.14
69245;BME280;56357;52.304;4.870;2023-05-03T02:02:48;103187.59;;;17.17;45.43
69245;BME280;56357;52.304;4.870;2023-05-03T02:05:14;103185.63;;;17.17;45.37
69245;BME280;56357;52.304;4.870;2023-05-03T02:07:41;103175.53;;;17.23;45.18
69245;BME280;56357;52.304;4.870;2023-05-03T02:10:07;103169.94;;;17.23;45.23
69245;BME280;56357;52.304;4.870;2023-05-03T02:12:38;103162.59;;;17.22;45.43
69245;BME280;56357;52.304;4.870;2023-05-03T02:15:05;103159.78;;;17.22;45.35
69245;BME280;56357;52.304;4.870;2023-05-03T02:17:32;103147.53;;;17.23;45.23
69245;BME280;56357;52.304;4.870;2023-05-03T02:19:59;103150.53;;;17.21;45.30
69245;BME280;56357;52.304;4.870;2023-05-03T02:22:25;103146.66;;;17.16;45.47
69245;BME280;56357;52.304;4.870;2023-05-03T02:24:51;103148.16;;;17.25;45.13
69245;BME280;56357;52.304;4.870;2023-05-03T02:27:18;103154.66;;;17.19;45.36
69245;BME280;56357;52.304;4.870;2023-05-03T02:29:44;103146.88;;;17.21;45.31
69245;BME280;56357;52.304;4.870;2023-05-03T02:32:11;103158.28;;;17.19;45.33
69245;BME280;56357;52.304;4.870;2023-05-03T02:34:37;103170.81;;;17.17;45.58
69245;BME280;56357;52.304;4.870;2023-05-03T02:37:04;103173.38;;;17.25;45.21
69245;BME280;56357;52.304;4.870;2023-05-03T02:39:30;103169.94;;;17.23;45.26
69245;BME280;56357;52.304;4.870;2023-05-03T02:41:56;103170.13;;;17.21;45.47
69245;BME280;56357;52.304;4.870;2023-05-03T02:44:23;103166.22;;;17.29;45.11
69245;BME280;56357;52.304;4.870;2023-05-03T02:46:50;103184.13;;;17.28;45.23
69245;BME280;56357;52.304;4.870;2023-05-03T02:49:18;103190.19;;;17.18;45.31
69245;BME280;56357;52.304;4.870;2023-05-03T02:51:45;103197.06;;;17.22;45.31
69245;BME280;56357;52.304;4.870;2023-05-03T02:54:11;103193.16;;;17.23;45.23
69245;BME280;56357;52.304;4.870;2023-05-03T02:56:37;103194.03;;;17.24;45.15
69245;BME280;56357;52.304;4.870;2023-05-03T02:59:04;103192.97;;;17.25;45.31
69245;BME280;56357;52.304;4.870;2023-05-03T03:01:32;103196.44;;;17.20;45.18
69245;BME280;56357;52.304;4.870;2023-05-03T03:03:59;103193.63;;;17.14;45.37
69245;BME280;56357;52.304;4.870;2023-05-03T03:06:25;103200.94;;;17.21;45.59
69245;BME280;56357;52.304;4.870;2023-05-03T03:08:52;103187.16;;;17.20;45.19
69245;BME280;56357;52.304;4.870;2023-05-03T03:11:18;103195.78;;;17.18;45.38
69245;BME280;56357;52.304;4.870;2023-05-03T03:13:45;103195.34;;;17.15;45.44
69245;BME280;56357;52.304;4.870;2023-05-03T03:16:12;103201.16;;;17.20;45.39
69245;BME280;56357;52.304;4.870;2023-05-03T03:18:38;103199.03;;;17.15;45.49
69245;BME280;56357;52.304;4.870;2023-05-03T03:21:05;103206.13;;;17.18;45.48
69245;BME280;56357;52.304;4.870;2023-05-03T03:23:31;103210.00;;;17.17;45.50
69245;BME280;56357;52.304;4.870;2023-05-03T03:25:57;103207.63;;;17.14;45.38
69245;BME280;56357;52.304;4.870;2023-05-03T03:28:24;103201.81;;;17.09;45.35
69245;BME280;56357;52.304;4.870;2023-05-03T03:30:50;103212.16;;;17.08;45.66
69245;BME280;56357;52.304;4.870;2023-05-03T03:33:17;103214.72;;;17.10;45.58
69245;BME280;56357;52.304;4.870;2023-05-03T03:35:43;103208.06;;;17.11;45.39
69245;BME280;56357;52.304;4.870;2023-05-03T03:38:09;103206.34;;;17.10;45.37
69245;BME280;56357;52.304;4.870;2023-05-03T03:40:36;103198.81;;;17.10;45.47
69245;BME280;56357;52.304;4.870;2023-05-03T03:43:02;103196.63;;;17.06;45.76
69245;BME280;56357;52.304;4.870;2023-05-03T03:45:29;103202.25;;;17.06;45.45
69245;BME280;56357;52.304;4.870;2023-05-03T03:47:55;103199.88;;;17.03;45.67
69245;BME280;56357;52.304;4.870;2023-05-03T03:50:24;103200.75;;;17.03;45.63
69245;BME280;56357;52.304;4.870;2023-05-03T03:52:51;103192.78;;;17.07;45.66
69245;BME280;56357;52.304;4.870;2023-05-03T03:55:17;103198.38;;;17.07;45.89
69245;BME280;56357;52.304;4.870;2023-05-03T03:57:43;103199.25;;;17.01;45.95
69245;BME280;56357;52.304;4.870;2023-05-03T04:00:10;103210.88;;;16.98;45.81
69245;BME280;56357;52.304;4.870;2023-05-03T04:02:38;103205.94;;;17.00;46.00
69245;BME280;56357;52.304;4.870;2023-05-03T04:05:05;103220.13;;;17.05;45.79
69245;BME280;56357;52.304;4.870;2023-05-03T04:07:32;103219.50;;;17.03;45.99
69245;BME280;56357;52.304;4.870;2023-05-03T04:09:58;103218.19;;;16.99;45.68
69245;BME280;56357;52.304;4.870;2023-05-03T04:12:25;103218.41;;;16.97;45.65
69245;BME280;56357;52.304;4.870;2023-05-03T04:14:51;103231.78;;;16.95;45.80
69245;BME280;56357;52.304;4.870;2023-05-03T04:17:17;103228.97;;;16.95;46.03
69245;BME280;56357;52.304;4.870;2023-05-03T04:19:44;103229.19;;;16.94;45.99
69245;BME280;56357;52.304;4.870;2023-05-03T04:22:11;103232.19;;;16.99;45.70
69245;BME280;56357;52.304;4.870;2023-05-03T04:24:37;103228.53;;;16.98;45.77
69245;BME280;56357;52.304;4.870;2023-05-03T04:27:04;103228.09;;;16.95;46.09
69245;BME280;56357;52.304;4.870;2023-05-03T04:29:32;103233.28;;;16.98;45.90
69245;BME280;56357;52.304;4.870;2023-05-03T04:31:59;103232.00;;;16.94;46.02
69245;BME280;56357;52.304;4.870;2023-05-03T04:34:26;103228.97;;;16.89;46.17
69245;BME280;56357;52.304;4.870;2023-05-03T04:36:55;103235.66;;;16.94;45.76
69245;BME280;56357;52.304;4.870;2023-05-03T04:39:22;103224.88;;;16.98;46.07
69245;BME280;56357;52.304;4.870;2023-05-03T04:41:48;103232.84;;;16.94;45.83
69245;BME280;56357;52.304;4.870;2023-05-03T04:44:15;103231.53;;;16.97;46.20
69245;BME280;56357;52.304;4.870;2023-05-03T04:46:41;103224.66;;;16.99;45.99
69245;BME280;56357;52.304;4.870;2023-05-03T04:49:08;103230.69;;;17.03;45.95
69245;BME280;56357;52.304;4.870;2023-05-03T04:51:34;103240.59;;;16.99;45.93
69245;BME280;56357;52.304;4.870;2023-05-03T04:54:00;103242.31;;;17.06;46.01
69245;BME280;56357;52.304;4.870;2023-05-03T04:56:27;103248.31;;;17.10;45.78
69245;BME280;56357;52.304;4.870;2023-05-03T04:58:53;103236.94;;;17.11;45.82
69245;BME280;56357;52.304;4.870;2023-05-03T05:01:20;103238.88;;;17.11;46.02
69245;BME280;56357;52.304;4.870;2023-05-03T05:03:51;103236.03;;;17.17;45.59
69245;BME280;56357;52.304;4.870;2023-05-03T05:06:18;103238.41;;;17.14;45.63
69245;BME280;56357;52.304;4.870;2023-05-03T05:08:44;103243.38;;;17.18;45.77
69245;BME280;56357;52.304;4.870;2023-05-03T05:11:12;103236.69;;;17.19;45.45
69245;BME280;56357;52.304;4.870;2023-05-03T05:13:38;103236.28;;;17.22;45.26
69245;BME280;56357;52.304;4.870;2023-05-03T05:16:05;103241.66;;;17.24;45.38
69245;BME280;56357;52.304;4.870;2023-05-03T05:18:32;103234.75;;;17.26;45.15
69245;BME280;56357;52.304;4.870;2023-05-03T05:20:58;103231.06;;;17.39;45.04
69245;BME280;56357;52.304;4.870;2023-05-03T05:23:25;103231.91;;;17.59;44.29
69245;BME280;56357;52.304;4.870;2023-05-03T05:25:52;103239.44;;;17.65;44.56
69245;BME280;56357;52.304;4.870;2023-05-03T05:28:19;103245.19;;;17.83;43.76
69245;BME280;56357;52.304;4.870;2023-05-03T05:30:45;103241.44;;;18.02;43.77
69245;BME280;56357;52.304;4.870;2023-05-03T05:33:11;103248.41;;;17.87;44.04
69245;BME280;56357;52.304;4.870;2023-05-03T05:35:38;103245.25;;;17.70;44.55
69245;BME280;56357;52.304;4.870;2023-05-03T05:38:04;103257.09;;;17.66;44.49
69245;BME280;56357;52.304;4.870;2023-05-03T05:40:31;103251.09;;;17.62;45.04
69245;BME280;56357;52.304;4.870;2023-05-03T05:42:57;103244.63;;;18.12;44.67
69245;BME280;56357;52.304;4.870;2023-05-03T05:45:24;103252.78;;;17.76;44.31
69245;BME280;56357;52.304;4.870;2023-05-03T05:47:50;103248.91;;;17.64;44.51
69245;BME280;56357;52.304;4.870;2023-05-03T05:50:17;103259.94;;;17.59;44.27
69245;BME280;56357;52.304;4.870;2023-05-03T05:52:43;103264.00;;;17.76;44.34
69245;BME280;56357;52.304;4.870;2023-05-03T05:55:10;103265.91;;;17.82;44.26
69245;BME280;56357;52.304;4.870;2023-05-03T05:57:38;103253.81;;;17.82;43.78
69245;BME280;56357;52.304;4.870;2023-05-03T06:00:05;103256.22;;;17.78;44.21
69245;BME280;56357;52.304;4.870;2023-05-03T06:02:39;103246.06;;;17.77;44.00
69245;BME280;56357;52.304;4.870;2023-05-03T06:05:06;103263.31;;;17.81;44.03
69245;BME280;56357;52.304;4.870;2023-05-03T06:07:33;103260.88;;;17.97;44.30
69245;BME280;56357;52.304;4.870;2023-05-03T06:09:59;103254.06;;;17.80;44.81
69245;BME280;56357;52.304;4.870;2023-05-03T06:12:26;103258.97;;;17.85;44.98
69245;BME280;56357;52.304;4.870;2023-05-03T06:14:52;103253.13;;;17.93;46.86
69245;BME280;56357;52.304;4.870;2023-05-03T06:17:19;103254.63;;;18.02;44.91
69245;BME280;56357;52.304;4.870;2023-05-03T06:19:47;103250.25;;;18.12;44.49
69245;BME280;56357;52.304;4.870;2023-05-03T06:22:16;103247.13;;;18.27;43.83
69245;BME280;56357;52.304;4.870;2023-05-03T06:24:42;103254.88;;;18.38;44.14
69245;BME280;56357;52.304;4.870;2023-05-03T06:27:09;103254.44;;;18.35;43.72
69245;BME280;56357;52.304;4.870;2023-05-03T06:29:35;103254.00;;;18.38;43.63
69245;BME280;56357;52.304;4.870;2023-05-03T06:32:02;103249.63;;;18.48;43.25
69245;BME280;56357;52.304;4.870;2023-05-03T06:34:29;103245.09;;;18.54;43.38
69245;BME280;56357;52.304;4.870;2023-05-03T06:36:55;103255.00;;;18.81;42.88
69245;BME280;56357;52.304;4.870;2023-05-03T06:39:22;103251.94;;;18.89;42.75
69245;BME280;56357;52.304;4.870;2023-05-03T06:41:49;103248.81;;;19.03;43.24
69245;BME280;56357;52.304;4.870;2023-05-03T06:44:15;103246.84;;;19.04;42.38
69245;BME280;56357;52.304;4.870;2023-05-03T06:46:42;103236.59;;;18.91;42.08
69245;BME280;56357;52.304;4.870;2023-05-03T06:49:08;103235.31;;;19.12;42.04
69245;BME280;56357;52.304;4.870;2023-05-03T06:51:34;103230.09;;;19.15;42.14
69245;BME280;56357;52.304;4.870;2023-05-03T06:54:01;103232.56;;;19.30;41.13
69245;BME280;56357;52.304;4.870;2023-05-03T06:56:33;103234.75;;;19.28;41.71
69245;BME280;56357;52.304;4.870;2023-05-03T06:59:01;103220.81;;;19.40;41.37
69245;BME280;56357;52.304;4.870;2023-05-03T07:01:29;103216.50;;;19.37;41.40
69245;BME280;56357;52.304;4.870;2023-05-03T07:03:56;103224.50;;;19.58;41.21
69245;BME280;56357;52.304;4.870;2023-05-03T07:06:22;103217.28;;;19.44;41.11
69245;BME280;56357;52.304;4.870;2023-05-03T07:08:50;103218.53;;;19.48;40.91
69245;BME280;56357;52.304;4.870;2023-05-03T07:11:18;103213.72;;;19.55;40.71
69245;BME280;56357;52.304;4.870;2023-05-03T07:13:48;103219.50;;;19.60;40.57
69245;BME280;56357;52.304;4.870;2023-05-03T07:16:15;103217.78;;;19.77;40.54
69245;BME280;56357;52.304;4.870;2023-05-03T07:18:42;103216.84;;;19.83;40.45
69245;BME280;56357;52.304;4.870;2023-05-03T07:21:08;103208.53;;;19.88;40.05
69245;BME280;56357;52.304;4.870;2023-05-03T07:23:35;103217.44;;;20.03;40.11
69245;BME280;56357;52.304;4.870;2023-05-03T07:26:01;103208.09;;;19.91;40.11
69245;BME280;56357;52.304;4.870;2023-05-03T07:28:28;103191.84;;;19.93;40.37
69245;BME280;56357;52.304;4.870;2023-05-03T07:30:54;103204.38;;;20.09;40.12
69245;BME280;56357;52.304;4.870;2023-05-03T07:33:21;103198.84;;;20.02;39.58
69245;BME280;56357;52.304;4.870;2023-05-03T07:35:47;103209.84;;;20.22;39.66
69245;BME280;56357;52.304;4.870;2023-05-03T07:38:15;103197.41;;;20.30;39.70
69245;BME280;56357;52.304;4.870;2023-05-03T07:40:42;103204.22;;;20.22;39.98
69245;BME280;56357;52.304;4.870;2023-05-03T07:43:09;103192.78;;;20.35;39.09
69245;BME280;56357;52.304;4.870;2023-05-03T07:45:35;103197.66;;;20.28;39.20
69245;BME280;56357;52.304;4.870;2023-05-03T07:48:02;103190.81;;;20.36;39.61
69245;BME280;56357;52.304;4.870;2023-05-03T07:50:29;103193.31;;;20.44;39.50
69245;BME280;56357;52.304;4.870;2023-05-03T07:52:57;103189.53;;;20.61;38.96
69245;BME280;56357;52.304;4.870;2023-05-03T07:55:23;103189.50;;;20.50;39.10
69245;BME280;56357;52.304;4.870;2023-05-03T07:57:50;103185.13;;;20.65;39.17
69245;BME280;56357;52.304;4.870;2023-05-03T08:00:22;103178.38;;;20.55;39.06
69245;BME280;56357;52.304;4.870;2023-05-03T08:02:48;103175.31;;;20.56;38.87
69245;BME280;56357;52.304;4.870;2023-05-03T08:05:15;103174.00;;;20.59;39.35
69245;BME280;56357;52.304;4.870;2023-05-03T08:07:41;103176.22;;;20.68;39.06
69245;BME280;56357;52.304;4.870;2023-05-03T08:10:09;103183.31;;;20.71;38.71
69245;BME280;56357;52.304;4.870;2023-05-03T08:12:35;103175.25;;;20.74;38.66
69245;BME280;56357;52.304;4.870;2023-05-03T08:15:02;103185.16;;;20.77;38.50
69245;BME280;56357;52.304;4.870;2023-05-03T08:17:31;103188.94;;;20.71;38.83
69245;BME280;56357;52.304;4.870;2023-05-03T08:19:57;103201.84;;;20.90;40.99
69245;BME280;56357;52.304;4.870;2023-05-03T08:22:24;103192.84;;;21.23;40.17
69245;BME280;56357;52.304;4.870;2023-05-03T08:24:51;103190.81;;;21.00;37.20
69245;BME280;56357;52.304;4.870;2023-05-03T08:27:20;103198.16;;;20.78;36.40
69245;BME280;56357;52.304;4.870;2023-05-03T08:29:47;103200.56;;;20.63;37.26
69245;BME280;56357;52.304;4.870;2023-05-03T08:32:13;103206.94;;;20.70;37.11
69245;BME280;56357;52.304;4.870;2023-05-03T08:34:40;103213.78;;;20.62;37.63
69245;BME280;56357;52.304;4.870;2023-05-03T08:37:06;103206.38;;;20.50;37.56
69245;BME280;56357;52.304;4.870;2023-05-03T08:39:33;103207.13;;;20.45;37.58
69245;BME280;56357;52.304;4.870;2023-05-03T08:41:59;103216.84;;;20.61;37.63
69245;BME280;56357;52.304;4.870;2023-05-03T08:44:28;103210.25;;;20.67;37.11
69245;BME280;56357;52.304;4.870;2023-05-03T08:46:55;103209.75;;;20.70;38.01
69245;BME280;56357;52.304;4.870;2023-05-03T08:49:22;103218.13;;;20.88;38.49
69245;BME280;56357;52.304;4.870;2023-05-03T08:51:49;103205.66;;;20.95;37.35
69245;BME280;56357;52.304;4.870;2023-05-03T08:54:16;103208.50;;;21.07;37.37
69245;BME280;56357;52.304;4.870;2023-05-03T08:56:45;103213.13;;;20.90;37.32
69245;BME280;56357;52.304;4.870;2023-05-03T08:59:12;103204.78;;;20.95;37.95
69245;BME280;56357;52.304;4.870;2023-05-03T09:01:41;103207.34;;;20.96;37.59
69245;BME280;56357;52.304;4.870;2023-05-03T09:04:09;103200.38;;;20.99;37.66
69245;BME280;56357;52.304;4.870;2023-05-03T09:06:37;103195.63;;;21.00;37.86
69245;BME280;56357;52.304;4.870;2023-05-03T09:09:05;103197.84;;;21.21;38.70
69245;BME280;56357;52.304;4.870;2023-05-03T09:11:33;103206.31;;;21.09;38.34
69245;BME280;56357;52.304;4.870;2023-05-03T09:14:14;103199.91;;;21.02;38.01
69245;BME280;56357;52.304;4.870;2023-05-03T09:16:41;103197.97;;;21.03;37.71
69245;BME280;56357;52.304;4.870;2023-05-03T09:19:09;103203.66;;;20.96;37.69
69245;BME280;56357;52.304;4.870;2023-05-03T09:21:41;103202.09;;;21.00;37.64
69245;BME280;56357;52.304;4.870;2023-05-03T09:24:20;103198.84;;;21.03;37.68
69245;BME280;56357;52.304;4.870;2023-05-03T09:26:49;103196.50;;;21.23;37.61
69245;BME280;56357;52.304;4.870;2023-05-03T09:29:30;103192.56;;;21.47;39.03
69245;BME280;56357;52.304;4.870;2023-05-03T09:32:01;103193.56;;;21.18;38.55
69245;BME280;56357;52.304;4.870;2023-05-03T09:34:29;103198.84;;;21.15;36.70
69245;BME280;56357;52.304;4.870;2023-05-03T09:36:56;103193.91;;;21.10;36.60
69245;BME280;56357;52.304;4.870;2023-05-03T09:39:22;103201.50;;;21.33;37.03
69245;BME280;56357;52.304;4.870;2023-05-03T09:41:49;103197.59;;;21.22;37.52
69245;BME280;56357;52.304;4.870;2023-05-03T09:44:16;103202.13;;;21.23;36.86
69245;BME280;56357;52.304;4.870;2023-05-03T09:47:12;103206.41;;;21.26;37.93
69245;BME280;56357;52.304;4.870;2023-05-03T09:49:38;103197.47;;;21.17;37.27
69245;BME280;56357;52.304;4.870;2023-05-03T09:52:05;103200.91;;;21.19;37.68
69245;BME280;56357;52.304;4.870;2023-05-03T09:54:33;103189.78;;;21.13;36.99
69245;BME280;56357;52.304;4.870;2023-05-03T09:57:04;103206.31;;;21.32;37.31
69245;BME280;56357;52.304;4.870;2023-05-03T09:59:33;103199.44;;;21.17;37.59
69245;BME280;56357;52.304;4.870;2023-05-03T10:02:03;103197.34;;;21.24;37.56
69245;BME280;56357;52.304;4.870;2023-05-03T10:04:40;103190.38;;;21.26;37.15
69245;BME280;56357;52.304;4.870;2023-05-03T10:07:12;103179.94;;;21.15;37.54
69245;BME280;56357;52.304;4.870;2023-05-03T10:09:42;103190.59;;;21.13;38.05
69245;BME280;56357;52.304;4.870;2023-05-03T10:12:10;103180.09;;;21.09;37.78
69245;BME280;56357;52.304;4.870;2023-05-03T10:14:41;103187.41;;;21.21;37.90
69245;BME280;56357;52.304;4.870;2023-05-03T10:20:13;103190.38;;;21.03;38.36
69245;BME280;56357;52.304;4.870;2023-05-03T10:25:31;103175.53;;;21.19;37.96
69245;BME280;56357;52.304;4.870;2023-05-03T10:28:08;103177.13;;;21.15;38.06
69245;BME280;56357;52.304;4.870;2023-05-03T10:30:35;103179.34;;;21.02;39.08
69245;BME280;56357;52.304;4.870;2023-05-03T10:35:38;103180.81;;;21.27;38.57
69245;BME280;56357;52.304;4.870;2023-05-03T10:38:15;103181.56;;;21.11;38.55
69245;BME280;56357;52.304;4.870;2023-05-03T10:40:43;103181.41;;;21.18;38.70
69245;BME280;56357;52.304;4.870;2023-05-03T10:46:01;103177.88;;;21.22;38.85
69245;BME280;56357;52.304;4.870;2023-05-03T10:48:29;103168.03;;;21.36;39.52
69245;BME280;56357;52.304;4.870;2023-05-03T10:50:56;103167.94;;;21.31;38.77
69245;BME280;56357;52.304;4.870;2023-05-03T10:53:39;103177.38;;;21.25;39.16
69245;BME280;56357;52.304;4.870;2023-05-03T10:56:13;103168.06;;;21.13;38.81
69245;BME280;56357;52.304;4.870;2023-05-03T10:58:43;103173.81;;;21.41;40.65
69245;BME280;56357;52.304;4.870;2023-05-03T11:01:12;103156.06;;;21.29;38.55
69245;BME280;56357;52.304;4.870;2023-05-03T11:06:46;103156.41;;;21.21;39.21
69245;BME280;56357;52.304;4.870;2023-05-03T11:09:15;103147.34;;;21.08;38.95
69245;BME280;56357;52.304;4.870;2023-05-03T11:11:42;103143.44;;;21.09;39.30
69245;BME280;56357;52.304;4.870;2023-05-03T11:14:09;103145.75;;;21.23;38.77
69245;BME280;56357;52.304;4.870;2023-05-03T11:16:36;103150.06;;;21.14;39.56
69245;BME280;56357;52.304;4.870;2023-05-03T11:19:11;103149.81;;;21.27;39.41
69245;BME280;56357;52.304;4.870;2023-05-03T11:21:38;103151.53;;;21.17;39.35
69245;BME280;56357;52.304;4.870;2023-05-03T11:24:05;103144.06;;;21.11;39.09
69245;BME280;56357;52.304;4.870;2023-05-03T11:26:38;103139.28;;;21.11;38.95
69245;BME280;56357;52.304;4.870;2023-05-03T11:29:04;103143.09;;;21.05;39.31
69245;BME280;56357;52.304;4.870;2023-05-03T11:31:31;103147.50;;;21.24;39.74
69245;BME280;56357;52.304;4.870;2023-05-03T11:33:58;103143.56;;;21.25;38.81
69245;BME280;56357;52.304;4.870;2023-05-03T11:36:24;103146.25;;;21.32;39.42
69245;BME280;56357;52.304;4.870;2023-05-03T11:38:51;103142.22;;;21.16;39.17
69245;BME280;56357;52.304;4.870;2023-05-03T11:41:18;103133.88;;;21.10;39.64
69245;BME280;56357;52.304;4.870;2023-05-03T11:43:47;103135.25;;;21.07;39.83
69245;BME280;56357;52.304;4.870;2023-05-03T11:46:19;103132.03;;;21.15;39.87
69245;BME280;56357;52.304;4.870;2023-05-03T11:48:48;103136.47;;;21.11;39.23
69245;BME280;56357;52.304;4.870;2023-05-03T11:51:20;103127.88;;;21.06;39.23
69245;BME280;56357;52.304;4.870;2023-05-03T11:53:47;103125.69;;;21.08;39.55
69245;BME280;56357;52.304;4.870;2023-05-03T11:56:14;103112.81;;;21.01;39.56
69245;BME280;56357;52.304;4.870;2023-05-03T12:01:22;103114.91;;;21.05;39.54
69245;BME280;56357;52.304;4.870;2023-05-03T12:03:53;103110.59;;;21.14;40.22
69245;BME280;56357;52.304;4.870;2023-05-03T12:06:20;103099.59;;;21.13;39.48
69245;BME280;56357;52.304;4.870;2023-05-03T12:08:47;103095.31;;;21.10;39.46
69245;BME280;56357;52.304;4.870;2023-05-03T12:11:13;103106.56;;;21.10;40.00
69245;BME280;56357;52.304;4.870;2023-05-03T12:13:40;103086.84;;;21.10;39.99
69245;BME280;56357;52.304;4.870;2023-05-03T12:16:08;103077.53;;;21.10;39.49
69245;BME280;56357;52.304;4.870;2023-05-03T12:18:52;103092.22;;;21.23;40.56
69245;BME280;56357;52.304;4.870;2023-05-03T12:21:21;103081.69;;;21.19;39.39
69245;BME280;56357;52.304;4.870;2023-05-03T12:23:48;103084.13;;;21.15;39.42
69245;BME280;56357;52.304;4.870;2023-05-03T12:26:19;103072.38;;;21.18;40.29
69245;BME280;56357;52.304;4.870;2023-05-03T12:28:47;103069.78;;;21.28;39.82
69245;BME280;56357;52.304;4.870;2023-05-03T12:31:14;103073.22;;;21.30;40.05
69245;BME280;56357;52.304;4.870;2023-05-03T12:33:41;103076.69;;;21.09;39.59
69245;BME280;56357;52.304;4.870;2023-05-03T12:36:08;103067.22;;;21.15;39.82
69245;BME280;56357;52.304;4.870;2023-05-03T12:38:34;103067.63;;;21.07;39.94
69245;BME280;56357;52.304;4.870;2023-05-03T12:41:01;103058.31;;;21.07;39.49
69245;BME280;56357;52.304;4.870;2023-05-03T12:43:27;103064.03;;;21.23;40.51
69245;BME280;56357;52.304;4.870;2023-05-03T12:45:54;103049.75;;;21.02;40.12
69245;BME280;56357;52.304;4.870;2023-05-03T12:48:23;103058.31;;;21.07;39.86
69245;BME280;56357;52.304;4.870;2023-05-03T12:50:49;103059.41;;;21.06;39.96
69245;BME280;56357;52.304;4.870;2023-05-03T12:53:16;103055.72;;;21.17;40.31
69245;BME280;56357;52.304;4.870;2023-05-03T12:55:42;103044.56;;;21.22;39.64
69245;BME280;56357;52.304;4.870;2023-05-03T12:58:09;103036.13;;;21.10;39.68
69245;BME280;56357;52.304;4.870;2023-05-03T13:00:35;103042.72;;;21.16;40.05
69245;BME280;56357;52.304;4.870;2023-05-03T13:03:02;103042.81;;;21.32;40.01
69245;BME280;56357;52.304;4.870;2023-05-03T13:05:29;103042.44;;;21.29;40.12
69245;BME280;56357;52.304;4.870;2023-05-03T13:07:55;103047.25;;;21.28;39.43
69245;BME280;56357;52.304;4.870;2023-05-03T13:10:23;103051.75;;;21.29;40.69
69245;BME280;56357;52.304;4.870;2023-05-03T13:12:51;103047.44;;;21.38;40.80
69245;BME280;56357;52.304;4.870;2023-05-03T13:15:18;103031.78;;;21.31;39.68
69245;BME280;56357;52.304;4.870;2023-05-03T13:17:44;103040.38;;;21.24;40.15
69245;BME280;56357;52.304;4.870;2023-05-03T13:20:11;103024.94;;;21.15;38.10